createdAt,value
2018-05-24T00:00:42.012Z,5.53
2018-05-24T00:03:08.367Z,7.47
2018-05-24T00:05:34.790Z,6.03
2018-05-24T00:08:01.191Z,5.97
2018-05-24T00:10:27.689Z,7.27
2018-05-24T00:12:54.296Z,6.10
2018-05-24T00:15:20.685Z,5.40
2018-05-24T00:17:47.077Z,6.57
2018-05-24T00:20:13.475Z,8.27
2018-05-24T00:22:39.898Z,5.27
2018-05-24T00:25:06.279Z,5.87
2018-05-24T00:27:32.653Z,4.60
2018-05-24T00:29:59.023Z,4.83
2018-05-24T00:32:25.460Z,8.47
2018-05-24T00:34:51.833Z,7.10
2018-05-24T00:37:18.252Z,4.97
2018-05-24T00:39:44.630Z,7.23
2018-05-24T00:42:11.039Z,6.17
2018-05-24T00:44:37.418Z,7.97
2018-05-24T00:47:04.663Z,8.50
2018-05-24T00:49:31.105Z,6.30
2018-05-24T00:51:57.490Z,5.33
2018-05-24T00:54:23.908Z,7.20
2018-05-24T00:56:50.303Z,7.80
2018-05-24T00:59:16.652Z,8.00
2018-05-24T01:01:42.995Z,5.63
2018-05-24T01:04:09.471Z,6.53
2018-05-24T01:06:35.821Z,6.23
2018-05-24T01:09:02.334Z,9.03
2018-05-24T01:11:28.778Z,5.47
2018-05-24T01:13:55.236Z,8.97
2018-05-24T01:16:21.669Z,6.97
2018-05-24T01:18:48.065Z,5.30
2018-05-24T01:21:14.640Z,7.03
2018-05-24T01:23:41.018Z,6.37
2018-05-24T01:26:07.534Z,7.10
2018-05-24T01:28:33.947Z,6.23
2018-05-24T01:31:00.338Z,8.47
2018-05-24T01:33:26.710Z,7.80
2018-05-24T01:35:53.086Z,7.67
2018-05-24T01:38:19.531Z,7.90
2018-05-24T01:40:45.941Z,11.87
2018-05-24T01:43:12.316Z,10.40
2018-05-24T01:45:38.677Z,8.97
2018-05-24T01:48:06.048Z,10.77
2018-05-24T01:50:32.364Z,11.07
2018-05-24T01:52:58.768Z,11.97
2018-05-24T01:55:25.202Z,10.60
2018-05-24T01:57:51.625Z,10.50
2018-05-24T02:00:19.108Z,11.53
2018-05-24T02:02:45.441Z,11.20
2018-05-24T02:05:11.810Z,10.20
2018-05-24T02:07:38.186Z,9.90
2018-05-24T02:10:04.591Z,9.97
2018-05-24T02:12:30.957Z,10.33
2018-05-24T02:14:57.301Z,9.90
2018-05-24T02:17:24.311Z,10.30
2018-05-24T02:19:50.666Z,10.83
2018-05-24T02:22:17.034Z,10.50
2018-05-24T02:24:43.450Z,9.50
2018-05-24T02:27:09.859Z,9.60
2018-05-24T02:29:36.229Z,11.27
2018-05-24T02:32:02.746Z,10.53
2018-05-24T02:34:29.195Z,9.67
2018-05-24T02:36:55.539Z,12.77
2018-05-24T02:39:21.896Z,10.77
2018-05-24T02:41:48.278Z,10.63
2018-05-24T02:44:14.681Z,12.33
2018-05-24T02:46:41.102Z,13.83
2018-05-24T02:49:07.473Z,13.40
2018-05-24T02:51:33.835Z,14.23
2018-05-24T02:54:00.213Z,12.87
2018-05-24T02:56:27.134Z,13.00
2018-05-24T02:58:53.587Z,17.27
2018-05-24T03:01:19.933Z,18.23
2018-05-24T03:03:46.382Z,29.47
2018-05-24T03:06:12.694Z,33.07
2018-05-24T03:08:39.076Z,35.47
2018-05-24T03:11:05.445Z,43.70
2018-05-24T03:13:31.828Z,46.87
2018-05-24T03:15:58.190Z,51.10
2018-05-24T03:18:24.554Z,58.97
2018-05-24T03:20:50.954Z,60.63
2018-05-24T03:23:17.360Z,64.30
2018-05-24T03:25:43.874Z,64.17
2018-05-24T03:28:10.230Z,67.47
2018-05-24T03:30:36.593Z,89.03
2018-05-24T03:33:02.953Z,81.27
2018-05-24T03:35:29.328Z,81.20
2018-05-24T03:37:55.728Z,83.27
2018-05-24T03:40:22.104Z,82.07
2018-05-24T03:42:48.474Z,75.10
2018-05-24T03:45:14.858Z,80.27
2018-05-24T03:47:41.303Z,86.17
2018-05-24T03:50:07.650Z,97.27
2018-05-24T03:52:34.014Z,91.53
2018-05-24T03:55:01.363Z,101.47
2018-05-24T03:57:27.898Z,106.00
2018-05-24T04:00:07.241Z,107.67
2018-05-24T04:02:45.693Z,125.07
2018-05-24T04:05:11.978Z,119.10
2018-05-24T04:07:38.434Z,109.20
2018-05-24T04:10:04.866Z,119.67
2018-05-24T04:12:31.404Z,102.93
2018-05-24T04:14:58.761Z,118.23
2018-05-24T04:17:25.149Z,118.40
2018-05-24T04:19:51.549Z,107.53
2018-05-24T04:22:17.933Z,115.40
2018-05-24T04:24:45.285Z,107.50
2018-05-24T04:27:11.744Z,107.50
2018-05-24T04:29:38.149Z,106.17
2018-05-24T04:32:04.592Z,94.50
2018-05-24T04:34:31.047Z,92.43
2018-05-24T04:36:57.443Z,86.27
2018-05-24T04:39:23.809Z,78.40
2018-05-24T04:41:50.166Z,64.00
2018-05-24T04:44:16.577Z,54.43
2018-05-24T04:46:42.984Z,41.60
2018-05-24T04:49:09.908Z,41.03
2018-05-24T04:51:36.315Z,47.40
2018-05-24T04:54:02.754Z,43.10
2018-05-24T04:56:29.186Z,44.13
2018-05-24T04:58:55.605Z,44.80
2018-05-24T05:01:21.953Z,44.07
2018-05-24T05:03:48.350Z,41.20
2018-05-24T05:06:14.710Z,39.30
2018-05-24T05:08:41.094Z,42.43
2018-05-24T05:11:08.354Z,40.50
2018-05-24T05:13:34.758Z,39.50
2018-05-24T05:16:01.134Z,41.57
2018-05-24T05:18:27.520Z,42.97
2018-05-24T05:20:53.999Z,34.83
2018-05-24T05:23:21.192Z,34.00
2018-05-24T05:25:47.615Z,32.13
2018-05-24T05:28:14.015Z,31.67
2018-05-24T05:30:40.361Z,33.37
2018-05-24T05:33:06.756Z,33.77
2018-05-24T05:35:33.098Z,39.20
2018-05-24T05:37:59.498Z,36.83
2018-05-24T05:40:25.811Z,37.23
2018-05-24T05:42:52.385Z,37.97
2018-05-24T05:45:18.775Z,41.77
2018-05-24T05:47:45.346Z,43.63
2018-05-24T05:50:11.725Z,36.60
2018-05-24T05:52:38.094Z,39.23
2018-05-24T05:55:04.490Z,46.47
2018-05-24T05:57:31.504Z,50.07
2018-05-24T05:59:57.855Z,49.43
2018-05-24T06:02:24.250Z,43.77
2018-05-24T06:04:51.657Z,48.67
2018-05-24T06:07:18.614Z,51.97
2018-05-24T06:09:45.222Z,57.23
2018-05-24T06:12:11.737Z,56.37
2018-05-24T06:14:38.204Z,65.83
2018-05-24T06:17:05.082Z,61.07
2018-05-24T06:19:31.578Z,57.47
2018-05-24T06:21:58.062Z,52.97
2018-05-24T06:24:24.374Z,52.07
2018-05-24T06:26:50.756Z,51.50
2018-05-24T06:29:17.208Z,39.37
2018-05-24T06:31:43.744Z,37.53
2018-05-24T06:34:10.154Z,36.23
2018-05-24T06:36:36.526Z,34.53
2018-05-24T06:39:03.152Z,34.00
2018-05-24T06:41:29.555Z,29.70
2018-05-24T06:43:55.931Z,29.37
2018-05-24T06:46:22.577Z,32.90
2018-05-24T06:48:48.917Z,31.67
2018-05-24T06:51:15.293Z,35.67
2018-05-24T06:53:41.761Z,36.70
2018-05-24T06:56:08.107Z,30.03
2018-05-24T06:58:34.486Z,31.10
2018-05-24T07:01:01.814Z,29.17
2018-05-24T07:03:28.214Z,32.93
2018-05-24T07:05:54.808Z,30.60
2018-05-24T07:08:21.246Z,28.63
2018-05-24T07:10:47.582Z,30.03
2018-05-24T07:13:13.973Z,24.87
2018-05-24T07:15:40.571Z,28.80
2018-05-24T07:18:07.134Z,29.43
2018-05-24T07:20:33.539Z,22.83
2018-05-24T07:22:59.976Z,25.40
2018-05-24T07:25:26.411Z,27.73
2018-05-24T07:27:52.848Z,28.70
2018-05-24T07:30:19.206Z,27.90
2018-05-24T07:32:45.709Z,20.83
2018-05-24T07:35:12.114Z,19.00
2018-05-24T07:37:38.534Z,19.23
2018-05-24T07:40:04.925Z,19.17
2018-05-24T07:42:31.300Z,18.33
2018-05-24T07:44:57.696Z,21.63
2018-05-24T07:47:24.063Z,21.80
2018-05-24T07:49:50.538Z,21.43
2018-05-24T07:52:16.922Z,20.40
2018-05-24T07:54:43.324Z,19.70
2018-05-24T07:57:09.842Z,26.23
2018-05-24T07:59:36.376Z,28.23
2018-05-24T08:02:02.783Z,34.50
2018-05-24T08:04:29.170Z,35.03
2018-05-24T08:06:55.673Z,32.13
2018-05-24T08:09:22.113Z,34.47
2018-05-24T08:11:48.483Z,32.70
2018-05-24T08:14:14.926Z,31.47
2018-05-24T08:16:41.253Z,31.70
2018-05-24T08:19:07.767Z,32.03
2018-05-24T08:21:34.175Z,31.23
2018-05-24T08:24:00.825Z,27.20
2018-05-24T08:26:27.208Z,29.37
2018-05-24T08:28:53.550Z,25.77
2018-05-24T08:31:19.913Z,25.67
2018-05-24T08:33:46.587Z,27.33
2018-05-24T08:36:12.945Z,27.17
2018-05-24T08:38:39.338Z,28.73
2018-05-24T08:41:05.709Z,30.73
2018-05-24T08:43:33.212Z,29.13
2018-05-24T08:45:59.715Z,31.90
2018-05-24T08:48:26.365Z,30.10
2018-05-24T08:50:52.955Z,30.10
2018-05-24T08:53:19.447Z,30.47
2018-05-24T08:55:45.757Z,26.80
2018-05-24T08:58:13.012Z,29.53
2018-05-24T09:00:39.394Z,28.97
2018-05-24T09:03:06.411Z,33.83
2018-05-24T09:05:32.918Z,37.20
2018-05-24T09:07:59.410Z,38.40
2018-05-24T09:10:26.635Z,34.43
2018-05-24T09:12:53.294Z,29.37
2018-05-24T09:15:19.642Z,28.87
2018-05-24T09:17:46.138Z,28.37
2018-05-24T09:20:12.651Z,24.60
2018-05-24T09:22:39.113Z,27.63
2018-05-24T09:25:05.566Z,23.73
2018-05-24T09:27:31.934Z,29.47
2018-05-24T09:29:58.342Z,24.97
2018-05-24T09:32:24.818Z,25.57
2018-05-24T09:34:51.273Z,29.67
2018-05-24T09:37:17.629Z,28.73
2018-05-24T09:39:43.954Z,27.47
2018-05-24T09:42:10.395Z,24.93
2018-05-24T09:44:36.761Z,24.20
2018-05-24T09:47:03.135Z,24.07
2018-05-24T09:49:29.546Z,21.93
2018-05-24T09:51:55.974Z,25.53
2018-05-24T09:54:22.309Z,23.63
2018-05-24T09:56:48.695Z,24.63
2018-05-24T09:59:15.067Z,22.83
2018-05-24T10:01:41.426Z,24.90
2018-05-24T10:04:08.739Z,25.13
2018-05-24T10:06:36.673Z,24.97
2018-05-24T10:09:03.391Z,26.77
2018-05-24T10:11:29.830Z,26.77
2018-05-24T10:13:56.217Z,28.70
2018-05-24T10:16:22.777Z,30.53
2018-05-24T10:18:49.206Z,28.33
2018-05-24T10:21:15.815Z,27.70
2018-05-24T10:23:42.169Z,25.10
2018-05-24T10:26:08.508Z,26.20
2018-05-24T10:28:34.889Z,29.03
2018-05-24T10:31:01.286Z,31.63
2018-05-24T10:33:27.765Z,30.43
2018-05-24T10:35:54.687Z,34.57
2018-05-24T10:38:21.066Z,29.03
2018-05-24T10:40:47.541Z,27.70
2018-05-24T10:43:13.973Z,28.00
2018-05-24T10:45:40.388Z,30.30
2018-05-24T10:48:06.765Z,29.87
2018-05-24T10:50:33.149Z,27.53
2018-05-24T10:52:59.486Z,29.30
2018-05-24T10:55:25.857Z,29.13
2018-05-24T10:57:52.233Z,31.00
2018-05-24T11:00:18.573Z,27.20
2018-05-24T11:02:45.034Z,27.90
2018-05-24T11:05:11.437Z,26.33
2018-05-24T11:07:38.788Z,29.67
2018-05-24T11:10:05.149Z,29.67
2018-05-24T11:12:31.562Z,26.93
2018-05-24T11:14:57.978Z,26.17
2018-05-24T11:17:24.357Z,25.87
2018-05-24T11:19:50.737Z,28.00
2018-05-24T11:22:17.133Z,24.37
2018-05-24T11:24:43.523Z,23.60
2018-05-24T11:27:09.999Z,24.03
2018-05-24T11:29:36.362Z,25.77
2018-05-24T11:32:06.913Z,23.53
2018-05-24T11:34:33.630Z,25.67
2018-05-24T11:37:00.008Z,26.00
2018-05-24T11:39:26.387Z,28.73
2018-05-24T11:41:52.714Z,26.60
2018-05-24T11:44:19.049Z,27.00
2018-05-24T11:46:45.471Z,26.03
2018-05-24T11:49:12.387Z,24.17
2018-05-24T11:51:38.823Z,26.40
2018-05-24T11:54:05.260Z,27.07
2018-05-24T11:56:32.058Z,27.50
2018-05-24T11:58:58.739Z,28.33
2018-05-24T12:01:25.271Z,30.63
2018-05-24T12:03:51.630Z,27.13
2018-05-24T12:06:18.145Z,29.10
2018-05-24T12:08:44.599Z,28.37
2018-05-24T12:11:10.966Z,27.83
2018-05-24T12:13:37.438Z,29.17
2018-05-24T12:16:04.721Z,25.20
2018-05-24T12:18:30.997Z,26.10
2018-05-24T12:20:57.381Z,24.67
2018-05-24T12:23:23.679Z,25.47
2018-05-24T12:25:50.028Z,22.97
2018-05-24T12:28:16.431Z,24.60
2018-05-24T12:30:42.831Z,23.27
2018-05-24T12:33:09.166Z,24.13
2018-05-24T12:35:35.653Z,25.43
2018-05-24T12:38:01.972Z,24.00
2018-05-24T12:40:28.356Z,24.20
2018-05-24T12:42:54.844Z,23.70
2018-05-24T12:45:21.255Z,20.80
2018-05-24T12:47:47.663Z,22.10
2018-05-24T12:50:14.042Z,21.33
2018-05-24T12:52:40.343Z,19.87
2018-05-24T12:55:06.685Z,20.40
2018-05-24T12:57:33.120Z,19.30
2018-05-24T12:59:59.527Z,18.80
2018-05-24T13:02:26.283Z,20.10
2018-05-24T13:04:52.670Z,19.00
2018-05-24T13:07:18.989Z,19.90
2018-05-24T13:09:45.406Z,18.77
2018-05-24T13:12:11.779Z,21.73
2018-05-24T13:14:38.108Z,17.87
2018-05-24T13:17:04.473Z,18.97
2018-05-24T13:19:30.813Z,18.90
2018-05-24T13:21:57.129Z,18.40
2018-05-24T13:24:23.632Z,17.03
2018-05-24T13:26:49.931Z,16.07
2018-05-24T13:29:16.330Z,16.53
2018-05-24T13:31:42.659Z,18.33
2018-05-24T13:34:08.945Z,17.30
2018-05-24T13:36:35.321Z,16.53
2018-05-24T13:39:02.215Z,19.43
2018-05-24T13:41:28.610Z,16.80
2018-05-24T13:43:55.068Z,15.80
2018-05-24T13:46:21.444Z,16.30
2018-05-24T13:48:47.724Z,15.43
2018-05-24T13:51:14.094Z,13.73
2018-05-24T13:53:40.386Z,14.47
2018-05-24T13:56:06.677Z,14.20
2018-05-24T13:58:32.982Z,12.20
2018-05-24T14:00:59.334Z,12.37
2018-05-24T14:03:25.622Z,13.63
2018-05-24T14:05:51.978Z,12.57
2018-05-24T14:08:18.367Z,14.83
2018-05-24T14:10:44.664Z,12.30
2018-05-24T14:13:11.015Z,11.50
2018-05-24T14:15:37.336Z,10.67
2018-05-24T14:18:03.625Z,10.87
2018-05-24T14:20:29.905Z,13.87
2018-05-24T14:22:56.316Z,11.17
2018-05-24T14:25:22.650Z,12.93
2018-05-24T14:27:48.943Z,13.37
2018-05-24T14:30:15.322Z,9.67
2018-05-24T14:35:07.798Z,8.90
2018-05-24T14:37:34.126Z,12.37
2018-05-24T14:40:00.473Z,9.50
2018-05-24T14:42:26.838Z,15.30
2018-05-24T14:44:53.155Z,14.30
2018-05-24T14:47:19.635Z,10.50
2018-05-24T14:49:46.037Z,8.93
2018-05-24T14:52:12.369Z,12.87
2018-05-24T14:54:38.773Z,8.63
2018-05-24T14:57:05.143Z,15.33
2018-05-24T14:59:31.569Z,12.37
2018-05-24T15:01:57.869Z,13.67
2018-05-24T15:04:24.177Z,9.80
2018-05-24T15:06:50.529Z,7.30
2018-05-24T15:09:16.838Z,12.60
2018-05-24T15:11:43.165Z,11.63
2018-05-24T15:14:09.497Z,12.07
2018-05-24T15:16:35.833Z,10.80
2018-05-24T15:19:02.141Z,11.43
2018-05-24T15:21:28.522Z,10.97
2018-05-24T15:23:54.910Z,13.37
2018-05-24T15:26:21.283Z,16.17
2018-05-24T15:28:47.574Z,12.47
2018-05-24T15:31:13.922Z,14.60
2018-05-24T15:33:40.222Z,17.47
2018-05-24T15:36:06.571Z,12.20
2018-05-24T15:38:32.878Z,12.03
2018-05-24T15:40:59.165Z,13.10
2018-05-24T15:43:25.558Z,12.87
2018-05-24T15:45:51.830Z,11.87
2018-05-24T15:48:19.026Z,14.47
2018-05-24T15:50:45.394Z,12.33
2018-05-24T15:53:11.809Z,11.27
2018-05-24T15:55:38.978Z,12.30
2018-05-24T15:58:05.361Z,12.07
2018-05-24T16:00:31.884Z,12.73
2018-05-24T16:02:58.231Z,8.30
2018-05-24T16:05:24.594Z,13.43
2018-05-24T16:07:50.909Z,9.07
2018-05-24T16:10:17.213Z,9.77
2018-05-24T16:12:43.553Z,13.63
2018-05-24T16:15:09.940Z,12.67
2018-05-24T16:17:36.297Z,11.60
2018-05-24T16:20:02.690Z,14.97
2018-05-24T16:22:29.252Z,15.83
2018-05-24T16:24:55.514Z,15.07
2018-05-24T16:27:21.811Z,13.40
2018-05-24T16:29:48.859Z,14.93
2018-05-24T16:32:15.186Z,9.87
2018-05-24T16:34:41.497Z,17.13
2018-05-24T16:37:07.858Z,15.73
2018-05-24T16:39:34.190Z,10.17
2018-05-24T16:42:00.489Z,10.10
2018-05-24T16:44:26.845Z,11.70
2018-05-24T16:46:53.261Z,14.40
2018-05-24T16:49:19.587Z,10.17
2018-05-24T16:51:45.910Z,11.03
2018-05-24T16:54:12.259Z,10.60
2018-05-24T16:56:38.707Z,11.63
2018-05-24T16:59:05.190Z,10.93
2018-05-24T17:01:31.713Z,9.20
2018-05-24T17:03:58.058Z,11.70
2018-05-24T17:06:24.509Z,12.27
2018-05-24T17:08:50.807Z,12.20
2018-05-24T17:11:17.172Z,12.70
2018-05-24T17:13:43.537Z,15.10
2018-05-24T17:16:09.844Z,12.97
2018-05-24T17:18:36.116Z,12.53
2018-05-24T17:21:02.454Z,12.50
2018-05-24T17:23:28.781Z,15.07
2018-05-24T17:25:55.217Z,13.50
2018-05-24T17:28:21.574Z,16.60
2018-05-24T17:30:47.841Z,12.77
2018-05-24T17:33:14.158Z,12.33
2018-05-24T17:35:40.473Z,13.00
2018-05-24T17:38:06.769Z,11.43
2018-05-24T17:40:33.084Z,13.33
2018-05-24T17:42:59.434Z,13.73
2018-05-24T17:45:25.783Z,10.37
2018-05-24T17:47:52.102Z,13.23
2018-05-24T17:50:18.504Z,9.87
2018-05-24T17:52:44.939Z,12.03
2018-05-24T17:55:11.289Z,11.30
2018-05-24T17:57:37.679Z,10.83
2018-05-24T18:00:04.658Z,11.13
2018-05-24T18:02:30.977Z,12.70
2018-05-24T18:04:57.308Z,10.97
2018-05-24T18:07:23.658Z,14.53
2018-05-24T18:09:50.194Z,12.57
2018-05-24T18:12:16.611Z,17.90
2018-05-24T18:14:42.914Z,18.97
2018-05-24T18:17:09.374Z,10.07
2018-05-24T18:19:35.807Z,10.00
2018-05-24T18:22:02.127Z,8.77
2018-05-24T18:24:28.553Z,9.90
2018-05-24T18:26:54.857Z,11.13
2018-05-24T18:29:21.303Z,11.23
2018-05-24T18:31:47.598Z,11.33
2018-05-24T18:34:13.929Z,11.07
2018-05-24T18:36:40.293Z,12.83
2018-05-24T18:39:06.599Z,13.10
2018-05-24T18:41:32.877Z,11.30
2018-05-24T18:43:59.201Z,11.07
2018-05-24T18:46:25.481Z,9.93
2018-05-24T18:48:51.954Z,10.27
2018-05-24T18:51:18.281Z,10.40
2018-05-24T18:53:44.618Z,13.60
2018-05-24T18:56:11.185Z,12.33
2018-05-24T18:58:37.510Z,11.33
2018-05-24T19:01:03.848Z,11.13
2018-05-24T19:03:30.193Z,10.30
2018-05-24T19:05:56.506Z,9.67
2018-05-24T19:08:22.891Z,12.63
2018-05-24T19:10:49.285Z,9.80
2018-05-24T19:13:15.707Z,11.30
2018-05-24T19:15:42.059Z,12.17
2018-05-24T19:18:08.471Z,11.10
2018-05-24T19:20:34.857Z,12.53
2018-05-24T19:23:01.221Z,9.63
2018-05-24T19:25:27.652Z,10.50
2018-05-24T19:27:53.978Z,9.23
2018-05-24T19:30:20.470Z,8.73
2018-05-24T19:32:46.806Z,10.40
2018-05-24T19:35:13.611Z,12.07
2018-05-24T19:37:39.966Z,10.97
2018-05-24T19:40:06.310Z,9.73
2018-05-24T19:42:32.619Z,14.50
2018-05-24T19:44:58.961Z,6.97
2018-05-24T19:47:25.596Z,12.20
2018-05-24T19:49:52.160Z,9.70
2018-05-24T19:52:18.657Z,11.57
2018-05-24T19:54:44.991Z,10.77
2018-05-24T19:57:11.325Z,9.33
2018-05-24T19:59:37.697Z,10.83
2018-05-24T20:02:04.046Z,10.37
2018-05-24T20:04:30.364Z,10.50
2018-05-24T20:06:56.835Z,9.10
2018-05-24T20:09:23.125Z,10.60
2018-05-24T20:11:49.478Z,11.10
2018-05-24T20:14:15.842Z,12.27
2018-05-24T20:16:42.145Z,10.03
2018-05-24T20:19:08.443Z,12.80
2018-05-24T20:21:34.819Z,11.60
2018-05-24T20:24:01.184Z,10.10
2018-05-24T20:26:27.493Z,11.67
2018-05-24T20:28:53.894Z,12.90
2018-05-24T20:31:20.294Z,9.83
2018-05-24T20:33:46.718Z,13.97
2018-05-24T20:36:13.130Z,13.27
2018-05-24T20:38:39.416Z,12.53
2018-05-24T20:41:05.697Z,10.87
2018-05-24T20:43:32.071Z,12.20
2018-05-24T20:45:58.506Z,12.00
2018-05-24T20:48:24.846Z,17.13
2018-05-24T20:50:51.308Z,9.97
2018-05-24T20:53:17.651Z,11.53
2018-05-24T20:55:43.961Z,11.23
2018-05-24T20:58:10.330Z,10.37
2018-05-24T21:00:36.613Z,10.50
2018-05-24T21:03:02.921Z,9.17
2018-05-24T21:05:29.193Z,12.37
2018-05-24T21:07:55.729Z,13.13
2018-05-24T21:10:22.071Z,10.30
2018-05-24T21:12:48.402Z,11.80
2018-05-24T21:15:14.751Z,8.60
2018-05-24T21:17:41.159Z,12.37
2018-05-24T21:20:07.533Z,9.80
2018-05-24T21:22:33.915Z,17.73
2018-05-24T21:25:00.247Z,11.70
2018-05-24T21:27:26.564Z,10.00
2018-05-24T21:29:52.873Z,11.80
2018-05-24T21:32:19.157Z,10.47
2018-05-24T21:34:45.496Z,14.33
2018-05-24T21:37:11.902Z,11.93
2018-05-24T21:39:38.204Z,13.10
2018-05-24T21:42:04.694Z,13.63
2018-05-24T21:44:31.154Z,12.77
2018-05-24T21:46:57.461Z,14.40
2018-05-24T21:49:23.850Z,10.10
2018-05-24T21:51:50.160Z,12.33
2018-05-24T21:54:16.467Z,14.40
2018-05-24T21:56:42.794Z,13.03
2018-05-24T21:59:09.162Z,11.13
2018-05-24T22:01:35.495Z,12.87
2018-05-24T22:04:01.851Z,15.73
2018-05-24T22:06:28.286Z,11.87
2018-05-24T22:08:54.719Z,15.70
2018-05-24T22:11:21.022Z,11.57
2018-05-24T22:13:47.398Z,11.60
2018-05-24T22:16:13.721Z,12.07
2018-05-24T22:18:40.222Z,14.03
2018-05-24T22:21:06.567Z,12.13
2018-05-24T22:23:32.910Z,10.57
2018-05-24T22:25:59.217Z,12.80
2018-05-24T22:28:25.583Z,14.97
2018-05-24T22:30:52.738Z,10.13
2018-05-24T22:33:19.071Z,11.33
2018-05-24T22:35:45.413Z,12.17
2018-05-24T22:38:11.761Z,10.73
2018-05-24T22:40:38.136Z,9.23
2018-05-24T22:43:04.558Z,13.23
2018-05-24T22:45:30.890Z,11.30
2018-05-24T22:47:57.276Z,11.37
2018-05-24T22:50:23.706Z,11.43
2018-05-24T22:52:50.098Z,11.40
2018-05-24T22:55:16.545Z,11.40
2018-05-24T22:57:42.981Z,11.00
2018-05-24T23:00:09.366Z,13.17
2018-05-24T23:02:35.616Z,10.57
2018-05-24T23:05:02.122Z,13.77
2018-05-24T23:07:28.482Z,12.33
2018-05-24T23:09:55.794Z,9.80
2018-05-24T23:12:22.178Z,12.27
2018-05-24T23:14:48.548Z,12.13
2018-05-24T23:17:14.888Z,12.57
2018-05-24T23:19:41.220Z,10.27
2018-05-24T23:22:07.623Z,9.30
2018-05-24T23:24:34.090Z,10.83
2018-05-24T23:27:00.465Z,10.97
2018-05-24T23:29:26.798Z,10.53
2018-05-24T23:31:53.220Z,10.53
2018-05-24T23:34:19.582Z,9.80
2018-05-24T23:36:45.993Z,10.00
2018-05-24T23:39:12.377Z,9.03
2018-05-24T23:41:38.781Z,10.67
2018-05-24T23:44:05.188Z,12.07
2018-05-24T23:46:32.582Z,12.67
2018-05-24T23:48:58.979Z,13.67
2018-05-24T23:51:25.314Z,12.50
2018-05-24T23:53:51.717Z,13.80
2018-05-24T23:56:18.201Z,11.03
2018-05-24T23:58:44.562Z,12.80
